Time;durP1;ratioP1;P1;durP2;ratioP2;P2;SDS_P1;SDS_P2;PMS_P1;PMS_P2;Temp;Humidity;BMP_temperature;BMP_pressure;BME280_temperature;BME280_humidity;BME280_pressure;Samples;Min_cycle;Max_cycle;Signal;HPM_P1;HPM_P2
2022/09/11 00:01:08;;;;;;;;;;;16.40;99.90;;;;;;8410435;28;20373;-72
2022/09/11 00:05:10;;;;;;;;;;;16.40;99.90;;;;;;8413753;28;20416;-72
2022/09/11 00:09:12;;;;;;;;;;;16.40;99.90;;;;;;8408029;28;19930;-72
2022/09/11 00:13:16;;;;;;;;;;;16.30;99.90;;;;;;8414147;28;20269;-72
2022/09/11 00:17:18;;;;;;;;;;;16.30;99.90;;;;;;8414431;28;20261;-72
2022/09/11 00:21:19;;;;;;;;;;;16.20;99.90;;;;;;8411858;28;19928;-72
2022/09/11 00:25:21;;;;;;;;;;;16.20;99.90;;;;;;8409525;28;20002;-72
2022/09/11 00:29:23;;;;;;;;;;;16.20;99.90;;;;;;8414070;28;19934;-72
2022/09/11 00:33:26;;;;;;;;;;;16.10;99.90;;;;;;8417728;28;19938;-72
2022/09/11 00:37:27;;;;;;;;;;;16.10;99.90;;;;;;8410268;28;19928;-72
2022/09/11 00:41:34;;;;;;;;;;;16.00;99.90;;;;;;8407472;28;19998;-72
2022/09/11 00:45:37;;;;;;;;;;;16.00;99.90;;;;;;8407365;28;19993;-72
2022/09/11 00:49:45;;;;;;;;;;;16.00;99.90;;;;;;8402235;28;19924;-72
2022/09/11 00:53:48;;;;;;;;;;;16.00;99.90;;;;;;8402267;28;19971;-72
2022/09/11 00:57:56;;;;;;;;;;;16.00;99.90;;;;;;8405673;28;20007;-72
2022/09/11 01:01:57;;;;;;;;;;;15.90;99.90;;;;;;8409629;28;20302;-72
2022/09/11 01:05:59;;;;;;;;;;;15.90;99.90;;;;;;8410670;28;19924;-72
2022/09/11 01:10:02;;;;;;;;;;;15.90;99.90;;;;;;8382782;28;19926;-74
2022/09/11 01:14:10;;;;;;;;;;;15.80;99.90;;;;;;8412815;28;19920;-72
2022/09/11 01:18:33;;;;;;;;;;;15.80;99.90;;;;;;8410443;28;20363;-72
2022/09/11 01:22:44;;;;;;;;;;;15.70;99.90;;;;;;8408006;28;19919;-72
2022/09/11 01:27:05;;;;;;;;;;;15.60;99.90;;;;;;8405113;28;20398;-72
2022/09/11 01:31:10;;;;;;;;;;;15.60;99.90;;;;;;8406291;28;19939;-72
2022/09/11 01:35:11;;;;;;;;;;;15.50;99.90;;;;;;8406744;28;20292;-72
2022/09/11 01:39:18;;;;;;;;;;;15.50;99.90;;;;;;8403507;28;19928;-72
2022/09/11 01:43:22;;;;;;;;;;;15.50;99.90;;;;;;8404914;28;19931;-72
2022/09/11 01:47:24;;;;;;;;;;;15.40;99.90;;;;;;8409264;28;20018;-72
2022/09/11 01:51:29;;;;;;;;;;;15.40;99.90;;;;;;8406984;28;19920;-72
2022/09/11 01:55:43;;;;;;;;;;;15.40;99.90;;;;;;8406316;28;20004;-72
2022/09/11 01:59:47;;;;;;;;;;;15.40;99.90;;;;;;8408842;28;20333;-72
2022/09/11 02:04:03;;;;;;;;;;;15.40;99.90;;;;;;8394061;28;19927;-72
2022/09/11 02:08:15;;;;;;;;;;;15.30;99.90;;;;;;8392858;28;19924;-72
2022/09/11 02:12:19;;;;;;;;;;;15.30;99.90;;;;;;8408500;28;19932;-72
2022/09/11 02:16:29;;;;;;;;;;;15.30;99.90;;;;;;8401356;28;20006;-72
2022/09/11 02:20:30;;;;;;;;;;;15.30;99.90;;;;;;8405822;28;19928;-72
2022/09/11 02:24:32;;;;;;;;;;;15.20;99.90;;;;;;8401519;28;19930;-72
2022/09/11 02:28:34;;;;;;;;;;;15.20;99.90;;;;;;8408307;28;19923;-72
2022/09/11 02:32:37;;;;;;;;;;;15.20;99.90;;;;;;8417687;28;19926;-72
2022/09/11 02:37:02;;;;;;;;;;;15.10;99.90;;;;;;8409555;28;19919;-72
2022/09/11 02:41:13;;;;;;;;;;;15.10;99.90;;;;;;8408613;28;19978;-72
2022/09/11 02:45:17;;;;;;;;;;;15.00;99.90;;;;;;8409045;28;20245;-72
2022/09/11 02:49:54;;;;;;;;;;;15.00;99.90;;;;;;8409612;28;19920;-72
2022/09/11 02:54:04;;;;;;;;;;;15.00;99.90;;;;;;8287473;28;19967;-72
2022/09/11 02:58:14;;;;;;;;;;;14.90;99.90;;;;;;8416709;28;20283;-72
2022/09/11 03:02:17;;;;;;;;;;;14.90;99.90;;;;;;8408783;28;20255;-72
2022/09/11 03:06:20;;;;;;;;;;;14.90;99.90;;;;;;8409765;28;19920;-73
2022/09/11 03:10:21;;;;;;;;;;;14.90;99.90;;;;;;8410841;28;19963;-72
2022/09/11 03:14:23;;;;;;;;;;;14.80;99.90;;;;;;8408026;28;19974;-72
2022/09/11 03:18:25;;;;;;;;;;;14.80;99.90;;;;;;8394569;28;20398;-72
2022/09/11 03:22:26;;;;;;;;;;;14.80;99.90;;;;;;8411293;28;19936;-72
2022/09/11 03:26:28;;;;;;;;;;;14.80;99.90;;;;;;8410976;28;19928;-72
2022/09/11 03:30:31;;;;;;;;;;;14.70;99.90;;;;;;8408518;28;20014;-72
2022/09/11 03:34:33;;;;;;;;;;;14.70;99.90;;;;;;8390911;28;19932;-72
2022/09/11 03:38:34;;;;;;;;;;;14.70;99.90;;;;;;8407147;28;20383;-72
2022/09/11 03:42:36;;;;;;;;;;;14.60;99.90;;;;;;8397336;28;19934;-72
2022/09/11 03:46:38;;;;;;;;;;;14.60;99.90;;;;;;8405603;28;19921;-72
2022/09/11 03:50:40;;;;;;;;;;;14.60;99.90;;;;;;8412121;28;19924;-72
2022/09/11 03:54:41;;;;;;;;;;;14.50;99.90;;;;;;8415916;28;20030;-72
2022/09/11 03:58:43;;;;;;;;;;;14.50;99.90;;;;;;8409496;28;19928;-72
2022/09/11 04:02:44;;;;;;;;;;;14.50;99.90;;;;;;8410524;28;19926;-72
2022/09/11 04:06:46;;;;;;;;;;;14.40;99.90;;;;;;8407178;28;20272;-72
2022/09/11 04:10:48;;;;;;;;;;;14.40;99.90;;;;;;8412307;28;19926;-72
2022/09/11 04:14:49;;;;;;;;;;;14.40;99.90;;;;;;8393377;28;20247;-72
2022/09/11 04:18:53;;;;;;;;;;;14.40;99.90;;;;;;8411871;28;19924;-72
2022/09/11 04:22:54;;;;;;;;;;;14.40;99.90;;;;;;8411310;28;19979;-72
2022/09/11 04:26:59;;;;;;;;;;;14.40;99.90;;;;;;8394312;28;19926;-72
2022/09/11 04:31:02;;;;;;;;;;;14.40;99.90;;;;;;8400062;28;20314;-72
2022/09/11 04:35:04;;;;;;;;;;;14.40;99.90;;;;;;8397007;28;20024;-72
2022/09/11 04:39:05;;;;;;;;;;;14.40;99.90;;;;;;8408961;28;19919;-72
2022/09/11 04:43:08;;;;;;;;;;;14.40;99.90;;;;;;8412880;28;20273;-72
2022/09/11 04:47:09;;;;;;;;;;;14.40;99.90;;;;;;8415655;28;19930;-72
2022/09/11 04:51:16;;;;;;;;;;;14.30;99.90;;;;;;8410362;28;20003;-72
2022/09/11 04:55:18;;;;;;;;;;;14.40;99.90;;;;;;8414747;28;19931;-72
2022/09/11 04:59:21;;;;;;;;;;;14.30;99.90;;;;;;8408017;28;20216;-72
2022/09/11 05:03:23;;;;;;;;;;;14.30;99.90;;;;;;8391128;28;19920;-72
2022/09/11 05:07:25;;;;;;;;;;;14.30;99.90;;;;;;8410324;28;19934;-72
2022/09/11 05:11:26;;;;;;;;;;;14.30;99.90;;;;;;8410424;28;20367;-72
2022/09/11 05:15:28;;;;;;;;;;;14.30;99.90;;;;;;8401747;28;20434;-72
2022/09/11 05:19:30;;;;;;;;;;;14.30;99.90;;;;;;8408610;28;20011;-72
2022/09/11 05:23:32;;;;;;;;;;;14.30;99.90;;;;;;8392442;28;19924;-72
2022/09/11 05:27:34;;;;;;;;;;;14.30;99.90;;;;;;8410524;28;19924;-72
2022/09/11 05:31:39;;;;;;;;;;;14.30;99.90;;;;;;8404765;28;20306;-72
2022/09/11 05:35:41;;;;;;;;;;;14.30;99.90;;;;;;8395022;28;19955;-72
2022/09/11 05:39:42;;;;;;;;;;;14.30;99.90;;;;;;8400703;28;20406;-72
2022/09/11 05:43:44;;;;;;;;;;;14.30;99.90;;;;;;8413454;28;19990;-72
2022/09/11 05:47:45;;;;;;;;;;;14.30;99.90;;;;;;8415316;28;19935;-72
2022/09/11 05:51:47;;;;;;;;;;;14.30;99.90;;;;;;8416645;28;19934;-71
2022/09/11 05:55:50;;;;;;;;;;;14.30;99.90;;;;;;8414705;28;20236;-72
2022/09/11 05:59:52;;;;;;;;;;;14.40;99.90;;;;;;8415097;28;20009;-71
2022/09/11 06:03:53;;;;;;;;;;;14.40;99.90;;;;;;8419840;28;19979;-72
2022/09/11 06:07:55;;;;;;;;;;;14.40;99.90;;;;;;8420615;28;20010;-72
2022/09/11 06:11:57;;;;;;;;;;;14.50;99.90;;;;;;8414172;28;19959;-72
2022/09/11 06:15:59;;;;;;;;;;;14.50;99.90;;;;;;8399255;28;19921;-72
2022/09/11 06:20:00;;;;;;;;;;;14.50;99.90;;;;;;8408040;28;19928;-72
2022/09/11 06:24:02;;;;;;;;;;;14.60;99.90;;;;;;8414577;28;20330;-72
2022/09/11 06:28:04;;;;;;;;;;;14.60;99.90;;;;;;8394656;28;19934;-72
2022/09/11 06:32:06;;;;;;;;;;;14.70;99.90;;;;;;8406984;28;19928;-72
2022/09/11 06:36:12;;;;;;;;;;;14.70;99.90;;;;;;8408527;28;19924;-72
2022/09/11 06:40:13;;;;;;;;;;;14.80;99.90;;;;;;8412745;28;19921;-72
2022/09/11 06:44:16;;;;;;;;;;;14.90;99.90;;;;;;8402193;28;19920;-72
2022/09/11 06:48:18;;;;;;;;;;;14.90;99.90;;;;;;8414464;28;20375;-72
2022/09/11 06:52:19;;;;;;;;;;;15.00;99.90;;;;;;8413277;28;19924;-72
2022/09/11 06:56:21;;;;;;;;;;;15.10;99.90;;;;;;8419673;28;20395;-72
2022/09/11 07:00:22;;;;;;;;;;;15.10;99.90;;;;;;8388923;28;20383;-72
2022/09/11 07:04:24;;;;;;;;;;;15.20;99.90;;;;;;8403058;28;19920;-72
2022/09/11 07:08:26;;;;;;;;;;;15.30;99.90;;;;;;8391898;28;19926;-72
2022/09/11 07:12:28;;;;;;;;;;;15.30;99.90;;;;;;8388288;28;19926;-72
2022/09/11 07:16:29;;;;;;;;;;;15.40;99.90;;;;;;8393357;28;20352;-72
2022/09/11 07:20:31;;;;;;;;;;;15.40;99.90;;;;;;8389455;28;19928;-72
2022/09/11 07:24:33;;;;;;;;;;;15.40;99.90;;;;;;8372210;28;19920;-72
2022/09/11 07:28:36;;;;;;;;;;;15.50;99.90;;;;;;8393207;28;20358;-72
2022/09/11 07:32:38;;;;;;;;;;;15.50;99.90;;;;;;8389701;28;19930;-72
2022/09/11 07:36:40;;;;;;;;;;;15.60;99.90;;;;;;8387659;28;19938;-72
2022/09/11 07:40:43;;;;;;;;;;;15.70;99.90;;;;;;8385696;28;20770;-72
2022/09/11 07:44:44;;;;;;;;;;;15.70;99.90;;;;;;8377488;28;20011;-72
2022/09/11 07:48:46;;;;;;;;;;;15.70;99.90;;;;;;8403623;28;19924;-72
2022/09/11 07:52:48;;;;;;;;;;;15.80;99.90;;;;;;8402964;28;19928;-72
2022/09/11 07:56:49;;;;;;;;;;;15.90;99.90;;;;;;8399778;28;19928;-72
2022/09/11 08:00:56;;;;;;;;;;;16.00;99.90;;;;;;8395614;28;19928;-72
2022/09/11 08:04:57;;;;;;;;;;;16.10;99.90;;;;;;8388323;28;19973;-72
2022/09/11 08:09:03;;;;;;;;;;;16.20;99.90;;;;;;8383535;28;19923;-72
2022/09/11 08:13:05;;;;;;;;;;;16.30;99.90;;;;;;8368620;28;20446;-72
2022/09/11 08:17:09;;;;;;;;;;;16.40;99.90;;;;;;8387072;28;20031;-72
2022/09/11 08:21:11;;;;;;;;;;;16.40;99.90;;;;;;8386636;28;20035;-73
2022/09/11 08:25:17;;;;;;;;;;;16.60;99.90;;;;;;8369322;28;19921;-72
2022/09/11 08:29:18;;;;;;;;;;;16.60;99.90;;;;;;8385761;28;20256;-72
2022/09/11 08:33:20;;;;;;;;;;;16.80;99.90;;;;;;8389560;28;19959;-72
2022/09/11 08:37:22;;;;;;;;;;;16.90;99.90;;;;;;8388364;28;19928;-73
2022/09/11 08:41:42;;;;;;;;;;;17.00;99.90;;;;;;8388421;28;20286;-72
2022/09/11 08:45:44;;;;;;;;;;;17.20;99.90;;;;;;8385272;28;19950;-72
2022/09/11 08:49:51;;;;;;;;;;;17.40;99.90;;;;;;8389395;28;19986;-73
2022/09/11 08:53:54;;;;;;;;;;;17.50;99.90;;;;;;8386681;28;19974;-73
2022/09/11 08:58:17;;;;;;;;;;;17.70;99.90;;;;;;8368044;28;19924;-72
2022/09/11 09:02:26;;;;;;;;;;;17.80;99.90;;;;;;8387091;28;19970;-72
2022/09/11 09:06:27;;;;;;;;;;;18.00;99.90;;;;;;8383637;28;19920;-72
2022/09/11 09:10:32;;;;;;;;;;;18.10;99.90;;;;;;8387829;28;20302;-73
2022/09/11 09:14:42;;;;;;;;;;;18.20;99.90;;;;;;8395095;28;19934;-72
2022/09/11 09:19:02;;;;;;;;;;;18.40;99.90;;;;;;8397959;28;19920;-72
2022/09/11 09:23:17;;;;;;;;;;;18.50;99.90;;;;;;8382843;28;20714;-73
2022/09/11 09:27:29;;;;;;;;;;;18.70;99.90;;;;;;8383613;28;20019;-73
2022/09/11 09:31:32;;;;;;;;;;;18.80;99.90;;;;;;8374064;28;19920;-73
2022/09/11 09:35:41;;;;;;;;;;;18.90;99.90;;;;;;8393519;28;19924;-73
2022/09/11 09:39:43;;;;;;;;;;;19.00;99.90;;;;;;8395485;28;19920;-73
2022/09/11 09:43:51;;;;;;;;;;;19.10;99.90;;;;;;8395145;28;19925;-72
2022/09/11 09:47:52;;;;;;;;;;;19.10;99.90;;;;;;8374612;28;20618;-72
2022/09/11 09:51:55;;;;;;;;;;;19.10;99.90;;;;;;8395221;28;19924;-72
2022/09/11 09:56:00;;;;;;;;;;;19.10;99.90;;;;;;8396282;28;20295;-72
2022/09/11 10:00:03;;;;;;;;;;;19.10;99.90;;;;;;8396501;28;19950;-72
2022/09/11 10:04:09;;;;;;;;;;;19.10;99.90;;;;;;8391967;28;19924;-72
2022/09/11 10:08:25;;;;;;;;;;;19.20;99.90;;;;;;8396754;28;20007;-72
2022/09/11 10:12:27;;;;;;;;;;;19.40;99.90;;;;;;8389184;28;19928;-72
2022/09/11 10:16:31;;;;;;;;;;;19.50;99.90;;;;;;8375134;28;19921;-72
2022/09/11 10:20:33;;;;;;;;;;;19.50;99.90;;;;;;8392059;28;19931;-72
2022/09/11 10:24:35;;;;;;;;;;;19.50;99.90;;;;;;8384790;28;19927;-72
2022/09/11 10:28:37;;;;;;;;;;;19.50;99.90;;;;;;8384476;28;19926;-72
2022/09/11 10:32:40;;;;;;;;;;;19.60;99.90;;;;;;8364527;28;19924;-72
2022/09/11 10:36:53;;;;;;;6.82;4.45;;;19.60;99.90;;;;;;8390575;28;20814;-72
2022/09/11 10:41:13;;;;;;;6.82;3.70;;;19.80;99.90;;;;;;8404061;28;20090;-72
2022/09/11 10:45:17;;;;;;;8.10;3.90;;;19.90;99.90;;;;;;8398710;28;20135;-73
2022/09/11 10:49:22;;;;;;;4.93;3.35;;;20.00;99.90;;;;;;8403406;28;20048;-73
2022/09/11 10:53:24;;;;;;;6.40;4.35;;;20.10;99.90;;;;;;8407048;28;20139;-73
2022/09/11 10:57:46;;;;;;;5.72;3.60;;;20.10;99.90;;;;;;8390663;28;20167;-73
2022/09/11 11:01:48;;;;;;;5.75;3.60;;;20.00;99.90;;;;;;8391217;28;20052;-72
2022/09/11 11:06:28;;;;;;;5.43;3.42;;;20.10;99.90;;;;;;8388324;28;20060;-72
2022/09/11 11:10:41;;;;;;;6.88;3.10;;;20.00;99.90;;;;;;8377114;28;20653;-72
2022/09/11 11:14:54;;;;;;;7.57;3.72;;;20.00;99.90;;;;;;8381274;28;20418;-72
2022/09/11 11:19:26;;;;;;;9.27;5.15;;;20.00;99.90;;;;;;8386808;28;20054;-72
2022/09/11 11:23:59;;;;;;;6.63;4.55;;;20.10;99.90;;;;;;8388129;28;20052;-73
2022/09/11 11:28:20;;;;;;;5.68;4.05;;;20.10;99.90;;;;;;8389680;28;20055;-72
2022/09/11 11:32:51;;;;;;;5.97;3.70;;;20.10;99.90;;;;;;8386686;28;20055;-72
2022/09/11 11:37:14;;;;;;;6.43;4.00;;;20.00;99.90;;;;;;8384900;28;20091;-72
2022/09/11 11:41:27;;;;;;;5.53;3.88;;;20.00;99.90;;;;;;8384790;28;20071;-73
2022/09/11 11:45:33;;;;;;;8.23;3.90;;;19.90;99.90;;;;;;8382730;28;20106;-73
2022/09/11 11:49:45;;;;;;;;;;;20.10;99.90;;;;;;8392986;28;20040;-74
2022/09/11 11:53:50;;;;;;;;;;;20.40;99.90;;;;;;8389911;28;19945;-74
2022/09/11 11:58:10;;;;;;;;;;;20.70;99.90;;;;;;8392599;28;20364;-74
2022/09/11 12:02:12;;;;;;;;;;;20.90;99.90;;;;;;8391844;28;19930;-73
2022/09/11 12:06:14;;;;;;;;;;;21.10;99.90;;;;;;8392984;28;19977;-73
2022/09/11 12:10:27;;;;;;;;;;;21.30;99.90;;;;;;8395724;28;19926;-73
2022/09/11 12:14:32;;;;;;;;;;;21.40;99.90;;;;;;8387344;28;19931;-72
2022/09/11 12:18:34;;;;;;;;;;;21.40;99.90;;;;;;8392000;28;19924;-73
2022/09/11 12:22:45;;;;;;;;;;;21.40;99.90;;;;;;8390525;28;20289;-72
2022/09/11 12:27:07;;;;;;;;;;;21.40;99.90;;;;;;8388311;28;20015;-73
2022/09/11 12:31:15;;;;;;;;;;;21.40;99.90;;;;;;8384991;28;19946;-73
2022/09/11 12:35:20;;;;;;;;;;;21.30;99.90;;;;;;8386846;28;19920;-73
2022/09/11 12:39:33;;;;;;;;;;;21.30;99.90;;;;;;8392318;28;20438;-73
2022/09/11 12:43:34;;;;;;;;;;;21.40;99.90;;;;;;8392721;28;19938;-73
2022/09/11 12:47:38;;;;;;;;;;;21.40;99.90;;;;;;8398050;28;19920;-74
2022/09/11 12:51:43;;;;;;;;;;;21.40;99.90;;;;;;8386397;28;19920;-73
2022/09/11 12:55:53;;;;;;;;;;;21.30;99.90;;;;;;8389035;28;19927;-73
2022/09/11 12:59:58;;;;;;;;;;;21.30;99.90;;;;;;8388749;28;20010;-73
2022/09/11 13:04:14;;;;;;;;;;;21.30;99.90;;;;;;8389649;28;19931;-74
2022/09/11 13:08:17;;;;;;;;;;;21.30;99.90;;;;;;8368889;28;19920;-74
2022/09/11 13:12:22;;;;;;;;;;;21.40;99.90;;;;;;8389609;28;19999;-73
2022/09/11 13:16:25;;;;;;;;;;;21.50;99.90;;;;;;8387738;28;19942;-73
2022/09/11 13:20:26;;;;;;;;;;;21.50;99.90;;;;;;8390340;28;20019;-73
2022/09/11 13:24:29;;;;;;;;;;;21.50;99.90;;;;;;8396785;28;19927;-74
2022/09/11 13:28:35;;;;;;;;;;;21.50;99.90;;;;;;8396410;28;20019;-73
2022/09/11 13:32:36;;;;;;;;;;;21.50;99.90;;;;;;8395584;28;20019;-73
2022/09/11 13:36:39;;;;;;;;;;;21.40;99.90;;;;;;8389162;28;19926;-73
2022/09/11 13:40:43;;;;;;;;;;;21.40;99.90;;;;;;8390500;28;20397;-73
2022/09/11 13:44:46;;;;;;;;;;;21.50;99.90;;;;;;8389630;28;19920;-73
2022/09/11 13:48:49;;;;;;;;;;;21.60;99.90;;;;;;8390287;28;19952;-74
2022/09/11 13:52:52;;;;;;;;;;;21.50;99.90;;;;;;8393458;28;19934;-73
2022/09/11 13:56:54;;;;;;;;;;;21.60;99.90;;;;;;8400851;28;20018;-73
2022/09/11 14:01:07;;;;;;;;;;;21.70;99.90;;;;;;8390679;28;20027;-73
2022/09/11 14:05:13;;;;;;;;;;;21.80;99.90;;;;;;8386349;28;19940;-73
2022/09/11 14:09:19;;;;;;;;;;;21.80;99.90;;;;;;8397067;28;19920;-73
2022/09/11 14:13:31;;;;;;;;;;;21.80;99.90;;;;;;8395984;28;20390;-73
2022/09/11 14:17:33;;;;;;;;;;;21.70;99.90;;;;;;8401595;28;20389;-73
2022/09/11 14:21:36;;;;;;;;;;;21.70;99.90;;;;;;8401797;28;19967;-73
2022/09/11 14:25:58;;;;;;;;;;;21.70;99.90;;;;;;8397197;28;20282;-73
2022/09/11 14:30:00;;;;;;;;;;;21.80;99.90;;;;;;8391478;28;20329;-74
2022/09/11 14:34:09;;;;;;;;;;;21.80;99.90;;;;;;8392963;28;19928;-73
2022/09/11 14:38:12;;;;;;;;;;;21.70;99.90;;;;;;8382667;28;19921;-73
2022/09/11 14:42:21;;;;;;;;;;;21.70;99.90;;;;;;8396702;28;20495;-73
2022/09/11 14:46:23;;;;;;;;;;;21.70;99.90;;;;;;8376702;28;20375;-72
2022/09/11 14:50:25;;;;;;;;;;;21.60;99.90;;;;;;8389861;28;20046;-73
2022/09/11 14:54:29;;;;;;;;;;;21.60;99.90;;;;;;8372959;28;20023;-73
2022/09/11 14:58:31;;;;;;;;;;;21.60;99.90;;;;;;8392875;28;19924;-73
2022/09/11 15:02:33;;;;;;;;;;;21.50;99.90;;;;;;8388441;28;19950;-73
2022/09/11 15:06:35;;;;;;;;;;;21.50;99.90;;;;;;8387817;28;19928;-73
2022/09/11 15:10:37;;;;;;;;;;;21.50;99.90;;;;;;8394191;28;20260;-72
2022/09/11 15:14:38;;;;;;;;;;;21.50;99.90;;;;;;8391106;28;20068;-73
2022/09/11 15:18:58;;;;;;;;;;;21.50;99.90;;;;;;8395301;28;19969;-73
2022/09/11 15:23:00;;;;;;;;;;;21.50;99.90;;;;;;8390375;28;19927;-73
2022/09/11 15:27:02;;;;;;;;;;;21.60;99.90;;;;;;8389787;28;20334;-73
2022/09/11 15:31:04;;;;;;;;;;;21.60;99.90;;;;;;8390477;28;19927;-74
2022/09/11 15:35:06;;;;;;;;;;;21.70;99.90;;;;;;8391677;28;20342;-75
2022/09/11 15:39:10;;;;;;;;;;;21.70;99.90;;;;;;8377438;28;19934;-74
2022/09/11 15:43:12;;;;;;;;;;;21.70;99.90;;;;;;8386067;28;20349;-75
2022/09/11 15:47:15;;;;;;;;;;;21.60;99.90;;;;;;8389952;28;19935;-74
2022/09/11 15:51:18;;;;;;;;;;;21.60;99.90;;;;;;8389067;28;19931;-74
2022/09/11 15:55:19;;;;;;;;;;;21.60;99.90;;;;;;8396559;28;20386;-74
2022/09/11 15:59:21;;;;;;;;;;;21.60;99.90;;;;;;8394969;28;19999;-75
2022/09/11 16:03:23;;;;;;;;;;;21.60;99.90;;;;;;8390587;28;20421;-74
2022/09/11 16:07:25;;;;;;;;;;;21.50;99.90;;;;;;8390951;28;19928;-75
2022/09/11 16:11:27;;;;;;;;;;;21.50;99.90;;;;;;8396266;28;19920;-74
2022/09/11 16:15:29;;;;;;;;;;;21.40;99.90;;;;;;8391859;28;19923;-73
2022/09/11 16:19:31;;;;;;;;;;;21.40;99.90;;;;;;8390483;28;19920;-74
2022/09/11 16:23:34;;;;;;;;;;;21.30;99.90;;;;;;8397996;28;20263;-74
2022/09/11 16:27:35;;;;;;;;;;;21.30;99.90;;;;;;8386243;28;20909;-74
2022/09/11 16:31:37;;;;;;;;;;;21.20;99.90;;;;;;8391348;28;19920;-74
2022/09/11 16:35:39;;;;;;;;;;;21.20;99.90;;;;;;8389089;28;19921;-75
2022/09/11 16:39:41;;;;;;;;;;;21.10;99.90;;;;;;8391298;28;19920;-75
2022/09/11 16:43:44;;;;;;;;;;;21.00;99.90;;;;;;8398252;28;19939;-75
2022/09/11 16:47:46;;;;;;;;;;;20.90;99.90;;;;;;8389608;28;19928;-75
2022/09/11 16:51:47;;;;;;;;;;;20.90;99.90;;;;;;8390350;28;19920;-75
2022/09/11 16:55:50;;;;;;;;;;;20.90;99.90;;;;;;8390748;28;20357;-74
2022/09/11 16:59:52;;;;;;;;;;;20.90;99.90;;;;;;8393281;28;19979;-75
2022/09/11 17:03:55;;;;;;;;;;;20.80;99.90;;;;;;8391418;28;19930;-75
2022/09/11 17:07:56;;;;;;;;;;;20.80;99.90;;;;;;8391143;28;20390;-75
2022/09/11 17:11:58;;;;;;;;;;;20.80;99.90;;;;;;8395065;28;20418;-75
2022/09/11 17:16:01;;;;;;;;;;;20.80;99.90;;;;;;8373365;28;19978;-74
2022/09/11 17:20:03;;;;;;;;;;;20.90;99.90;;;;;;8391376;28;19924;-74
2022/09/11 17:24:05;;;;;;;;;;;21.10;99.90;;;;;;8401662;28;19924;-75
2022/09/11 17:28:07;;;;;;;;;;;21.30;99.90;;;;;;8404125;28;20225;-74
2022/09/11 17:32:08;;;;;;;;;;;21.40;99.90;;;;;;8402176;28;19928;-74
2022/09/11 17:36:28;;;;;;;;;;;21.50;99.90;;;;;;8404472;28;19921;-74
2022/09/11 17:40:30;;;;;;;;;;;21.50;99.90;;;;;;8411988;28;21125;-75
2022/09/11 17:44:32;;;;;;;;;;;21.30;99.90;;;;;;8408358;28;19920;-74
2022/09/11 17:48:34;;;;;;;;;;;21.20;99.90;;;;;;8397405;28;20328;-74
2022/09/11 17:52:36;;;;;;;;;;;21.00;99.90;;;;;;8412481;28;19934;-75
2022/09/11 17:56:38;;;;;;;;;;;20.80;99.90;;;;;;8397604;28;19974;-74
2022/09/11 18:00:39;;;;;;;;;;;20.70;99.90;;;;;;8412291;28;19942;-74
2022/09/11 18:04:42;;;;;;;;;;;20.50;99.90;;;;;;8410339;28;19951;-74
2022/09/11 18:08:45;;;;;;;;;;;20.40;99.90;;;;;;8408564;28;20342;-75
2022/09/11 18:12:47;;;;;;;;;;;20.30;99.90;;;;;;8395912;28;20356;-74
2022/09/11 18:16:48;;;;;;;;;;;20.20;99.90;;;;;;8410823;28;19927;-75
2022/09/11 18:20:54;;;;;;;;;;;20.00;99.90;;;;;;8409907;28;19935;-74
2022/09/11 18:24:57;;;;;;;;;;;19.90;99.90;;;;;;8402792;28;19924;-75
2022/09/11 18:29:01;;;;;;;;;;;19.90;99.90;;;;;;8404596;28;20428;-74
2022/09/11 18:33:03;;;;;;;;;;;19.70;99.90;;;;;;8407310;28;20248;-74
2022/09/11 18:37:10;;;;;;;;;;;19.70;99.90;;;;;;8403535;28;19920;-74
2022/09/11 18:41:11;;;;;;;;;;;19.50;99.90;;;;;;8394015;28;19924;-75
2022/09/11 18:45:14;;;;;;;;;;;19.40;99.90;;;;;;8396386;28;20318;-75
2022/09/11 18:49:15;;;;;;;;;;;19.30;99.90;;;;;;8403174;28;19927;-75
2022/09/11 18:53:17;;;;;;;;;;;19.30;99.90;;;;;;8398230;28;19930;-75
2022/09/11 18:57:18;;;;;;;;;;;19.20;99.90;;;;;;8394689;28;19927;-75
2022/09/11 19:01:22;;;;;;;;;;;19.10;99.90;;;;;;8398974;28;19920;-74
2022/09/11 19:05:25;;;;;;;;;;;19.10;99.90;;;;;;8386814;28;20310;-74
2022/09/11 19:09:28;;;;;;;;;;;19.00;99.90;;;;;;8388250;28;20352;-75
2022/09/11 19:13:30;;;;;;;;;;;19.00;99.90;;;;;;8379337;28;19943;-75
2022/09/11 19:17:31;;;;;;;;;;;18.90;99.90;;;;;;8394650;28;19921;-74
2022/09/11 19:21:33;;;;;;;;;;;18.90;99.90;;;;;;8390960;28;19975;-74
2022/09/11 19:25:35;;;;;;;;;;;18.80;99.90;;;;;;8387899;28;20314;-75
2022/09/11 19:29:37;;;;;;;;;;;18.70;99.90;;;;;;8395541;28;19923;-74
2022/09/11 19:33:39;;;;;;;;;;;18.70;99.90;;;;;;8393004;28;20019;-74
2022/09/11 19:37:40;;;;;;;;;;;18.60;99.90;;;;;;8399193;28;19950;-74
2022/09/11 19:41:42;;;;;;;;;;;18.60;99.90;;;;;;8391758;28;20014;-74
2022/09/11 19:45:44;;;;;;;;;;;18.60;99.90;;;;;;8391212;28;19974;-74
2022/09/11 19:49:46;;;;;;;;;;;18.50;99.90;;;;;;8393998;28;19975;-74
2022/09/11 19:53:48;;;;;;;;;;;18.40;99.90;;;;;;8376023;28;20055;-74
2022/09/11 19:57:50;;;;;;;;;;;18.40;99.90;;;;;;8397342;28;20435;-74
2022/09/11 20:01:51;;;;;;;;;;;18.40;99.90;;;;;;8391742;28;19926;-75
2022/09/11 20:05:53;;;;;;;;;;;18.30;99.90;;;;;;8395343;28;19943;-75
2022/09/11 20:09:55;;;;;;;;;;;18.30;99.90;;;;;;8394724;28;20275;-75
2022/09/11 20:13:59;;;;;;;;;;;18.20;99.90;;;;;;8381980;28;20154;-74
2022/09/11 20:18:01;;;;;;;;;;;18.20;99.90;;;;;;8391054;28;19928;-74
2022/09/11 20:22:02;;;;;;;;;;;18.10;99.90;;;;;;8395138;28;20380;-74
2022/09/11 20:26:12;;;;;;;;;;;18.10;99.90;;;;;;8392066;28;20378;-74
2022/09/11 20:30:17;;;;;;;;;;;18.00;99.90;;;;;;8390455;28;20291;-74
2022/09/11 20:34:20;;;;;;;;;;;18.00;99.90;;;;;;8386159;28;19927;-74
2022/09/11 20:38:22;;;;;;;;;;;17.90;99.90;;;;;;8390465;28;20019;-74
2022/09/11 20:42:24;;;;;;;;;;;17.90;99.90;;;;;;8374984;28;19926;-74
2022/09/11 20:46:25;;;;;;;;;;;17.90;99.90;;;;;;8390086;28;20036;-74
2022/09/11 20:50:27;;;;;;;;;;;17.80;99.90;;;;;;8393664;28;19931;-74
2022/09/11 20:54:28;;;;;;;;;;;17.80;99.90;;;;;;8389387;28;20003;-74
2022/09/11 20:58:30;;;;;;;;;;;17.70;99.90;;;;;;8388423;28;19925;-74
2022/09/11 21:02:32;;;;;;;;;;;17.70;99.90;;;;;;8403475;28;19927;-74
2022/09/11 21:06:34;;;;;;;;;;;17.70;99.90;;;;;;8419480;28;20486;-75
2022/09/11 21:10:35;;;;;;;;;;;17.60;99.90;;;;;;8398477;28;20007;-75
2022/09/11 21:14:37;;;;;;;;;;;17.60;99.90;;;;;;8413463;28;20268;-74
2022/09/11 21:18:43;;;;;;;;;;;17.60;99.90;;;;;;8409704;28;19928;-74
2022/09/11 21:22:44;;;;;;;;;;;17.50;99.90;;;;;;8416100;28;19967;-74
2022/09/11 21:26:46;;;;;;;;;;;17.50;99.90;;;;;;8420706;28;19934;-74
2022/09/11 21:30:48;;;;;;;;;;;17.40;99.90;;;;;;8421640;28;19969;-74
2022/09/11 21:34:49;;;;;;;;;;;17.40;99.90;;;;;;8421720;28;19926;-74
2022/09/11 21:38:51;;;;;;;;;;;17.40;99.90;;;;;;8430789;28;19920;-74
2022/09/11 21:42:53;;;;;;;;;;;17.30;99.90;;;;;;8410936;28;20038;-74
2022/09/11 21:46:54;;;;;;;;;;;17.30;99.90;;;;;;8422257;28;19932;-74
2022/09/11 21:51:03;;;;;;;;;;;17.30;99.90;;;;;;8410126;28;19942;-74
2022/09/11 21:55:05;;;;;;;;;;;17.20;99.90;;;;;;8425573;28;20004;-74
2022/09/11 21:59:06;;;;;;;;;;;17.10;99.90;;;;;;8429399;28;19920;-75
2022/09/11 22:03:09;;;;;;;;;;;17.10;99.90;;;;;;8412129;28;19920;-74
2022/09/11 22:07:11;;;;;;;;;;;17.00;99.90;;;;;;8417200;28;19920;-74
2022/09/11 22:11:14;;;;;;;7.85;5.63;;;17.00;99.90;;;;;;8413959;28;19926;-74
2022/09/11 22:15:17;;;;;;;8.20;6.10;;;16.90;99.90;;;;;;8430072;28;20135;-74
2022/09/11 22:19:18;;;;;;;10.43;6.57;;;16.90;99.90;;;;;;8419856;28;20148;-75
2022/09/11 22:23:20;;;;;;;7.38;4.97;;;16.90;99.90;;;;;;8417432;28;20047;-75
2022/09/11 22:27:22;;;;;;;7.10;5.23;;;16.90;99.90;;;;;;8424285;28;20127;-74
2022/09/11 22:31:26;;;;;;;7.60;5.63;;;16.80;99.90;;;;;;8414352;28;20048;-74
2022/09/11 22:35:33;;;;;;;7.55;5.78;;;16.80;99.90;;;;;;8416714;28;20052;-75
2022/09/11 22:39:34;;;;;;;7.80;5.80;;;16.70;99.90;;;;;;8390572;28;20078;-74
2022/09/11 22:43:36;;;;;;;10.00;6.55;;;16.70;99.90;;;;;;8414824;28;20127;-74
2022/09/11 22:47:38;;;;;;;8.10;5.75;;;16.60;99.90;;;;;;8416427;28;20071;-75
2022/09/11 22:51:40;;;;;;;;;;;16.60;99.90;;;;;;8417723;28;19919;-74
2022/09/11 22:55:45;;;;;;;;;;;16.60;99.90;;;;;;8415763;28;19930;-74
2022/09/11 22:59:46;;;;;;;;;;;16.50;99.90;;;;;;8420624;28;19924;-74
2022/09/11 23:03:51;;;;;;;;;;;16.50;99.90;;;;;;8418502;28;20264;-75
2022/09/11 23:07:53;;;;;;;;;;;16.50;99.90;;;;;;8406165;28;19959;-74
2022/09/11 23:11:55;;;;;;;;;;;16.40;99.90;;;;;;8411362;28;19932;-75
2022/09/11 23:15:57;;;;;;;;;;;16.40;99.90;;;;;;8409440;28;19924;-74
2022/09/11 23:19:59;;;;;;;;;;;16.40;99.90;;;;;;8390842;28;19924;-74
2022/09/11 23:24:01;;;;;;;;;;;16.40;99.90;;;;;;8411318;28;20240;-74
2022/09/11 23:28:03;;;;;;;;;;;16.40;99.90;;;;;;8390420;28;19928;-74